sensor_id;sensor_type;location;lat;lon;timestamp;P1;durP1;ratioP1;P2;durP2;ratioP2
8228;SDS011;4155;50.118;8.714;2022-08-19T00:01:23;21.83;;;14.57;;
8228;SDS011;4155;50.118;8.714;2022-08-19T00:03:55;16.67;;;12.70;;
8228;SDS011;4155;50.118;8.714;2022-08-19T00:06:23;17.30;;;14.30;;
8228;SDS011;4155;50.118;8.714;2022-08-19T00:08:51;15.40;;;13.37;;
8228;SDS011;4155;50.118;8.714;2022-08-19T00:11:22;18.17;;;13.43;;
8228;SDS011;4155;50.118;8.714;2022-08-19T00:13:51;15.30;;;12.30;;
8228;SDS011;4155;50.118;8.714;2022-08-19T00:16:23;23.27;;;14.80;;
8228;SDS011;4155;50.118;8.714;2022-08-19T00:18:52;16.43;;;12.90;;
8228;SDS011;4155;50.118;8.714;2022-08-19T00:21:21;18.03;;;14.37;;
8228;SDS011;4155;50.118;8.714;2022-08-19T00:23:49;17.77;;;13.83;;
8228;SDS011;4155;50.118;8.714;2022-08-19T00:26:17;15.00;;;13.00;;
8228;SDS011;4155;50.118;8.714;2022-08-19T00:28:46;19.70;;;14.90;;
8228;SDS011;4155;50.118;8.714;2022-08-19T00:31:14;18.30;;;14.00;;
8228;SDS011;4155;50.118;8.714;2022-08-19T00:33:42;19.77;;;14.23;;
8228;SDS011;4155;50.118;8.714;2022-08-19T00:36:10;20.17;;;14.70;;
8228;SDS011;4155;50.118;8.714;2022-08-19T00:38:39;17.67;;;13.80;;
8228;SDS011;4155;50.118;8.714;2022-08-19T00:41:10;18.70;;;13.60;;
8228;SDS011;4155;50.118;8.714;2022-08-19T00:43:40;16.67;;;14.13;;
8228;SDS011;4155;50.118;8.714;2022-08-19T00:46:10;18.93;;;14.80;;
8228;SDS011;4155;50.118;8.714;2022-08-19T00:48:37;21.53;;;13.30;;
8228;SDS011;4155;50.118;8.714;2022-08-19T00:51:05;22.00;;;15.70;;
8228;SDS011;4155;50.118;8.714;2022-08-19T00:53:33;21.47;;;15.33;;
8228;SDS011;4155;50.118;8.714;2022-08-19T00:56:01;19.27;;;15.00;;
8228;SDS011;4155;50.118;8.714;2022-08-19T00:58:33;18.70;;;15.43;;
8228;SDS011;4155;50.118;8.714;2022-08-19T01:01:03;17.70;;;13.33;;
8228;SDS011;4155;50.118;8.714;2022-08-19T01:03:33;18.83;;;14.97;;
8228;SDS011;4155;50.118;8.714;2022-08-19T01:06:20;21.43;;;13.63;;
8228;SDS011;4155;50.118;8.714;2022-08-19T01:08:48;17.97;;;13.90;;
8228;SDS011;4155;50.118;8.714;2022-08-19T01:11:16;21.20;;;14.40;;
8228;SDS011;4155;50.118;8.714;2022-08-19T01:13:44;19.30;;;14.50;;
8228;SDS011;4155;50.118;8.714;2022-08-19T01:16:16;16.40;;;13.70;;
8228;SDS011;4155;50.118;8.714;2022-08-19T01:18:47;17.10;;;13.77;;
8228;SDS011;4155;50.118;8.714;2022-08-19T01:21:16;19.50;;;12.90;;
8228;SDS011;4155;50.118;8.714;2022-08-19T01:23:50;17.17;;;12.50;;
8228;SDS011;4155;50.118;8.714;2022-08-19T01:26:19;17.53;;;13.70;;
8228;SDS011;4155;50.118;8.714;2022-08-19T01:28:50;16.70;;;12.70;;
8228;SDS011;4155;50.118;8.714;2022-08-19T01:31:24;18.97;;;13.07;;
8228;SDS011;4155;50.118;8.714;2022-08-19T01:33:58;17.70;;;13.10;;
8228;SDS011;4155;50.118;8.714;2022-08-19T01:36:28;18.37;;;13.10;;
8228;SDS011;4155;50.118;8.714;2022-08-19T01:38:59;19.43;;;13.27;;
8228;SDS011;4155;50.118;8.714;2022-08-19T01:41:30;17.50;;;12.87;;
8228;SDS011;4155;50.118;8.714;2022-08-19T01:43:58;16.10;;;12.80;;
8228;SDS011;4155;50.118;8.714;2022-08-19T01:46:43;16.27;;;12.70;;
8228;SDS011;4155;50.118;8.714;2022-08-19T01:49:11;17.20;;;12.20;;
8228;SDS011;4155;50.118;8.714;2022-08-19T01:51:39;18.20;;;13.93;;
8228;SDS011;4155;50.118;8.714;2022-08-19T01:54:09;18.60;;;12.90;;
8228;SDS011;4155;50.118;8.714;2022-08-19T01:56:37;15.20;;;12.73;;
8228;SDS011;4155;50.118;8.714;2022-08-19T01:59:06;15.17;;;12.30;;
8228;SDS011;4155;50.118;8.714;2022-08-19T02:01:38;18.90;;;13.87;;
8228;SDS011;4155;50.118;8.714;2022-08-19T02:04:06;17.03;;;12.30;;
8228;SDS011;4155;50.118;8.714;2022-08-19T02:06:33;15.70;;;12.30;;
8228;SDS011;4155;50.118;8.714;2022-08-19T02:09:02;15.47;;;12.63;;
8228;SDS011;4155;50.118;8.714;2022-08-19T02:11:33;16.97;;;12.73;;
8228;SDS011;4155;50.118;8.714;2022-08-19T02:14:03;15.80;;;11.70;;
8228;SDS011;4155;50.118;8.714;2022-08-19T02:16:32;15.10;;;11.70;;
8228;SDS011;4155;50.118;8.714;2022-08-19T02:19:01;15.80;;;12.10;;
8228;SDS011;4155;50.118;8.714;2022-08-19T02:21:29;20.07;;;12.60;;
8228;SDS011;4155;50.118;8.714;2022-08-19T02:23:57;17.57;;;12.03;;
8228;SDS011;4155;50.118;8.714;2022-08-19T02:26:25;19.80;;;12.50;;
8228;SDS011;4155;50.118;8.714;2022-08-19T02:28:55;13.57;;;11.10;;
8228;SDS011;4155;50.118;8.714;2022-08-19T02:31:24;16.70;;;11.90;;
8228;SDS011;4155;50.118;8.714;2022-08-19T02:33:54;15.97;;;11.23;;
8228;SDS011;4155;50.118;8.714;2022-08-19T02:36:22;15.20;;;12.50;;
8228;SDS011;4155;50.118;8.714;2022-08-19T02:38:51;14.00;;;10.40;;
8228;SDS011;4155;50.118;8.714;2022-08-19T02:41:21;15.30;;;11.50;;
8228;SDS011;4155;50.118;8.714;2022-08-19T02:43:52;15.73;;;12.20;;
8228;SDS011;4155;50.118;8.714;2022-08-19T02:46:41;18.73;;;11.30;;
8228;SDS011;4155;50.118;8.714;2022-08-19T02:49:11;15.00;;;11.00;;
8228;SDS011;4155;50.118;8.714;2022-08-19T02:51:39;14.47;;;12.00;;
8228;SDS011;4155;50.118;8.714;2022-08-19T02:54:09;13.47;;;11.50;;
8228;SDS011;4155;50.118;8.714;2022-08-19T02:56:40;15.93;;;11.53;;
8228;SDS011;4155;50.118;8.714;2022-08-19T02:59:08;13.53;;;11.70;;
8228;SDS011;4155;50.118;8.714;2022-08-19T03:01:38;14.87;;;11.57;;
8228;SDS011;4155;50.118;8.714;2022-08-19T03:04:10;14.00;;;10.77;;
8228;SDS011;4155;50.118;8.714;2022-08-19T03:06:40;13.03;;;11.03;;
8228;SDS011;4155;50.118;8.714;2022-08-19T03:09:09;13.30;;;10.60;;
8228;SDS011;4155;50.118;8.714;2022-08-19T03:11:37;11.87;;;9.90;;
8228;SDS011;4155;50.118;8.714;2022-08-19T03:14:06;14.17;;;10.63;;
8228;SDS011;4155;50.118;8.714;2022-08-19T03:16:41;17.43;;;10.57;;
8228;SDS011;4155;50.118;8.714;2022-08-19T03:19:13;17.83;;;11.20;;
8228;SDS011;4155;50.118;8.714;2022-08-19T03:21:42;16.53;;;11.40;;
8228;SDS011;4155;50.118;8.714;2022-08-19T03:24:11;15.23;;;10.60;;
8228;SDS011;4155;50.118;8.714;2022-08-19T03:26:40;15.10;;;11.43;;
8228;SDS011;4155;50.118;8.714;2022-08-19T03:29:09;12.90;;;10.40;;
8228;SDS011;4155;50.118;8.714;2022-08-19T03:31:39;11.37;;;10.10;;
8228;SDS011;4155;50.118;8.714;2022-08-19T03:34:19;19.10;;;11.47;;
8228;SDS011;4155;50.118;8.714;2022-08-19T03:36:52;15.57;;;11.23;;
8228;SDS011;4155;50.118;8.714;2022-08-19T03:39:21;15.10;;;11.20;;
8228;SDS011;4155;50.118;8.714;2022-08-19T03:41:50;13.53;;;10.87;;
8228;SDS011;4155;50.118;8.714;2022-08-19T03:44:43;16.57;;;10.63;;
8228;SDS011;4155;50.118;8.714;2022-08-19T03:47:11;11.33;;;10.00;;
8228;SDS011;4155;50.118;8.714;2022-08-19T03:49:43;13.37;;;11.27;;
8228;SDS011;4155;50.118;8.714;2022-08-19T03:52:12;11.73;;;10.40;;
8228;SDS011;4155;50.118;8.714;2022-08-19T03:54:40;15.07;;;11.37;;
8228;SDS011;4155;50.118;8.714;2022-08-19T03:57:08;12.77;;;10.53;;
8228;SDS011;4155;50.118;8.714;2022-08-19T03:59:36;17.30;;;11.03;;
8228;SDS011;4155;50.118;8.714;2022-08-19T04:02:06;15.87;;;11.70;;
8228;SDS011;4155;50.118;8.714;2022-08-19T04:04:36;20.83;;;10.60;;
8228;SDS011;4155;50.118;8.714;2022-08-19T04:07:06;13.03;;;10.30;;
8228;SDS011;4155;50.118;8.714;2022-08-19T04:09:34;16.77;;;10.80;;
8228;SDS011;4155;50.118;8.714;2022-08-19T04:12:03;12.07;;;10.53;;
8228;SDS011;4155;50.118;8.714;2022-08-19T04:14:33;17.83;;;10.70;;
8228;SDS011;4155;50.118;8.714;2022-08-19T04:17:02;15.33;;;11.10;;
8228;SDS011;4155;50.118;8.714;2022-08-19T04:19:31;14.97;;;10.83;;
8228;SDS011;4155;50.118;8.714;2022-08-19T04:22:00;14.03;;;11.17;;
8228;SDS011;4155;50.118;8.714;2022-08-19T04:24:29;13.40;;;11.10;;
8228;SDS011;4155;50.118;8.714;2022-08-19T04:26:58;14.13;;;9.70;;
8228;SDS011;4155;50.118;8.714;2022-08-19T04:29:26;16.00;;;11.53;;
8228;SDS011;4155;50.118;8.714;2022-08-19T04:31:56;14.00;;;10.80;;
8228;SDS011;4155;50.118;8.714;2022-08-19T04:34:26;13.97;;;10.70;;
8228;SDS011;4155;50.118;8.714;2022-08-19T04:36:56;16.47;;;11.70;;
8228;SDS011;4155;50.118;8.714;2022-08-19T04:39:27;19.73;;;11.43;;
8228;SDS011;4155;50.118;8.714;2022-08-19T04:42:14;11.40;;;10.07;;
8228;SDS011;4155;50.118;8.714;2022-08-19T04:45:00;15.77;;;11.10;;
8228;SDS011;4155;50.118;8.714;2022-08-19T04:47:30;13.93;;;10.47;;
8228;SDS011;4155;50.118;8.714;2022-08-19T04:50:18;15.03;;;11.30;;
8228;SDS011;4155;50.118;8.714;2022-08-19T04:52:46;12.53;;;10.90;;
8228;SDS011;4155;50.118;8.714;2022-08-19T04:55:18;15.60;;;10.83;;
8228;SDS011;4155;50.118;8.714;2022-08-19T04:57:46;13.80;;;11.63;;
8228;SDS011;4155;50.118;8.714;2022-08-19T05:00:15;15.43;;;11.40;;
8228;SDS011;4155;50.118;8.714;2022-08-19T05:02:42;16.67;;;10.80;;
8228;SDS011;4155;50.118;8.714;2022-08-19T05:05:10;13.10;;;9.90;;
8228;SDS011;4155;50.118;8.714;2022-08-19T05:07:38;12.23;;;10.47;;
8228;SDS011;4155;50.118;8.714;2022-08-19T05:10:07;14.20;;;11.10;;
8228;SDS011;4155;50.118;8.714;2022-08-19T05:12:36;20.07;;;11.80;;
8228;SDS011;4155;50.118;8.714;2022-08-19T05:15:05;10.93;;;9.37;;
8228;SDS011;4155;50.118;8.714;2022-08-19T05:17:34;13.77;;;9.77;;
8228;SDS011;4155;50.118;8.714;2022-08-19T05:20:06;13.67;;;9.70;;
8228;SDS011;4155;50.118;8.714;2022-08-19T05:22:52;17.33;;;11.57;;
8228;SDS011;4155;50.118;8.714;2022-08-19T05:25:20;18.30;;;11.10;;
8228;SDS011;4155;50.118;8.714;2022-08-19T05:27:52;10.97;;;9.20;;
8228;SDS011;4155;50.118;8.714;2022-08-19T05:30:19;11.20;;;10.07;;
8228;SDS011;4155;50.118;8.714;2022-08-19T05:33:07;16.63;;;9.73;;
8228;SDS011;4155;50.118;8.714;2022-08-19T05:35:38;16.00;;;10.70;;
8228;SDS011;4155;50.118;8.714;2022-08-19T05:38:08;13.23;;;9.20;;
8228;SDS011;4155;50.118;8.714;2022-08-19T05:40:37;11.77;;;9.90;;
8228;SDS011;4155;50.118;8.714;2022-08-19T05:43:07;13.90;;;9.70;;
8228;SDS011;4155;50.118;8.714;2022-08-19T05:45:37;12.17;;;9.57;;
8228;SDS011;4155;50.118;8.714;2022-08-19T05:48:06;11.47;;;9.37;;
8228;SDS011;4155;50.118;8.714;2022-08-19T05:50:37;12.23;;;9.60;;
8228;SDS011;4155;50.118;8.714;2022-08-19T05:53:06;11.10;;;9.37;;
8228;SDS011;4155;50.118;8.714;2022-08-19T05:55:35;13.73;;;9.80;;
8228;SDS011;4155;50.118;8.714;2022-08-19T05:58:04;12.33;;;8.83;;
8228;SDS011;4155;50.118;8.714;2022-08-19T06:00:35;11.50;;;9.23;;
8228;SDS011;4155;50.118;8.714;2022-08-19T06:03:04;10.63;;;8.70;;
8228;SDS011;4155;50.118;8.714;2022-08-19T06:05:39;11.83;;;9.00;;
8228;SDS011;4155;50.118;8.714;2022-08-19T06:08:14;8.77;;;7.83;;
8228;SDS011;4155;50.118;8.714;2022-08-19T06:10:44;11.73;;;8.20;;
8228;SDS011;4155;50.118;8.714;2022-08-19T06:13:12;9.57;;;7.87;;
8228;SDS011;4155;50.118;8.714;2022-08-19T06:15:41;16.33;;;9.20;;
8228;SDS011;4155;50.118;8.714;2022-08-19T06:18:10;15.33;;;8.03;;
8228;SDS011;4155;50.118;8.714;2022-08-19T06:20:38;8.30;;;6.93;;
8228;SDS011;4155;50.118;8.714;2022-08-19T06:23:21;10.20;;;7.70;;
8228;SDS011;4155;50.118;8.714;2022-08-19T06:25:49;9.50;;;6.80;;
8228;SDS011;4155;50.118;8.714;2022-08-19T06:28:17;8.97;;;7.50;;
8228;SDS011;4155;50.118;8.714;2022-08-19T06:30:46;8.27;;;7.10;;
8228;SDS011;4155;50.118;8.714;2022-08-19T06:33:14;10.90;;;8.27;;
8228;SDS011;4155;50.118;8.714;2022-08-19T06:35:43;13.77;;;8.17;;
8228;SDS011;4155;50.118;8.714;2022-08-19T06:38:14;10.53;;;7.47;;
8228;SDS011;4155;50.118;8.714;2022-08-19T06:40:42;8.70;;;7.10;;
8228;SDS011;4155;50.118;8.714;2022-08-19T06:43:09;9.27;;;7.47;;
8228;SDS011;4155;50.118;8.714;2022-08-19T06:45:39;8.40;;;7.07;;
8228;SDS011;4155;50.118;8.714;2022-08-19T06:48:08;8.70;;;7.00;;
8228;SDS011;4155;50.118;8.714;2022-08-19T06:50:36;8.40;;;6.70;;
8228;SDS011;4155;50.118;8.714;2022-08-19T06:53:06;12.73;;;8.00;;
8228;SDS011;4155;50.118;8.714;2022-08-19T06:55:34;11.37;;;7.30;;
8228;SDS011;4155;50.118;8.714;2022-08-19T06:58:02;8.20;;;5.90;;
8228;SDS011;4155;50.118;8.714;2022-08-19T07:00:31;6.73;;;5.70;;
8228;SDS011;4155;50.118;8.714;2022-08-19T07:03:00;6.90;;;6.20;;
8228;SDS011;4155;50.118;8.714;2022-08-19T07:05:38;10.03;;;5.93;;
8228;SDS011;4155;50.118;8.714;2022-08-19T07:08:11;7.03;;;6.13;;
8228;SDS011;4155;50.118;8.714;2022-08-19T07:10:42;7.30;;;5.80;;
8228;SDS011;4155;50.118;8.714;2022-08-19T07:13:11;9.40;;;6.47;;
8228;SDS011;4155;50.118;8.714;2022-08-19T07:15:38;9.23;;;6.27;;
8228;SDS011;4155;50.118;8.714;2022-08-19T07:18:08;7.00;;;4.90;;
8228;SDS011;4155;50.118;8.714;2022-08-19T07:20:38;7.23;;;6.00;;
8228;SDS011;4155;50.118;8.714;2022-08-19T07:23:07;6.80;;;5.73;;
8228;SDS011;4155;50.118;8.714;2022-08-19T07:25:41;9.27;;;6.10;;
8228;SDS011;4155;50.118;8.714;2022-08-19T07:28:18;8.40;;;5.50;;
8228;SDS011;4155;50.118;8.714;2022-08-19T07:30:50;6.20;;;5.60;;
8228;SDS011;4155;50.118;8.714;2022-08-19T07:33:18;8.70;;;6.00;;
8228;SDS011;4155;50.118;8.714;2022-08-19T07:35:47;7.03;;;5.20;;
8228;SDS011;4155;50.118;8.714;2022-08-19T07:38:16;6.87;;;5.50;;
8228;SDS011;4155;50.118;8.714;2022-08-19T07:40:44;12.13;;;4.70;;
8228;SDS011;4155;50.118;8.714;2022-08-19T07:43:13;5.37;;;4.60;;
8228;SDS011;4155;50.118;8.714;2022-08-19T07:45:43;5.93;;;4.97;;
8228;SDS011;4155;50.118;8.714;2022-08-19T07:48:11;9.93;;;4.80;;
8228;SDS011;4155;50.118;8.714;2022-08-19T07:50:39;5.13;;;4.57;;
8228;SDS011;4155;50.118;8.714;2022-08-19T07:53:08;6.30;;;4.50;;
8228;SDS011;4155;50.118;8.714;2022-08-19T07:55:36;5.03;;;4.60;;
8228;SDS011;4155;50.118;8.714;2022-08-19T07:58:08;5.47;;;4.23;;
8228;SDS011;4155;50.118;8.714;2022-08-19T08:00:37;5.80;;;4.37;;
8228;SDS011;4155;50.118;8.714;2022-08-19T08:03:05;4.60;;;4.20;;
8228;SDS011;4155;50.118;8.714;2022-08-19T08:05:32;7.43;;;4.50;;
8228;SDS011;4155;50.118;8.714;2022-08-19T08:08:19;6.53;;;3.53;;
8228;SDS011;4155;50.118;8.714;2022-08-19T08:11:13;5.00;;;3.67;;
8228;SDS011;4155;50.118;8.714;2022-08-19T08:13:46;3.40;;;3.07;;
8228;SDS011;4155;50.118;8.714;2022-08-19T08:16:30;3.83;;;3.50;;
8228;SDS011;4155;50.118;8.714;2022-08-19T08:19:00;3.57;;;3.00;;
8228;SDS011;4155;50.118;8.714;2022-08-19T08:21:32;8.70;;;3.93;;
8228;SDS011;4155;50.118;8.714;2022-08-19T08:24:02;5.07;;;4.47;;
8228;SDS011;4155;50.118;8.714;2022-08-19T08:26:30;4.33;;;3.80;;
8228;SDS011;4155;50.118;8.714;2022-08-19T08:28:59;4.53;;;4.10;;
8228;SDS011;4155;50.118;8.714;2022-08-19T08:31:37;4.17;;;3.77;;
8228;SDS011;4155;50.118;8.714;2022-08-19T08:34:06;5.47;;;4.20;;
8228;SDS011;4155;50.118;8.714;2022-08-19T08:36:36;4.10;;;3.50;;
8228;SDS011;4155;50.118;8.714;2022-08-19T08:39:08;3.93;;;3.60;;
8228;SDS011;4155;50.118;8.714;2022-08-19T08:41:38;3.60;;;3.30;;
8228;SDS011;4155;50.118;8.714;2022-08-19T08:44:13;5.30;;;3.20;;
8228;SDS011;4155;50.118;8.714;2022-08-19T08:46:48;4.13;;;3.70;;
8228;SDS011;4155;50.118;8.714;2022-08-19T08:49:22;3.90;;;3.50;;
8228;SDS011;4155;50.118;8.714;2022-08-19T08:51:57;5.60;;;4.40;;
8228;SDS011;4155;50.118;8.714;2022-08-19T08:54:32;4.17;;;3.80;;
8228;SDS011;4155;50.118;8.714;2022-08-19T08:57:06;5.83;;;3.83;;
8228;SDS011;4155;50.118;8.714;2022-08-19T08:59:39;5.17;;;3.90;;
8228;SDS011;4155;50.118;8.714;2022-08-19T09:02:08;6.77;;;4.30;;
8228;SDS011;4155;50.118;8.714;2022-08-19T09:04:36;6.00;;;3.57;;
8228;SDS011;4155;50.118;8.714;2022-08-19T09:07:12;5.80;;;3.87;;
8228;SDS011;4155;50.118;8.714;2022-08-19T09:10:05;3.97;;;3.57;;
8228;SDS011;4155;50.118;8.714;2022-08-19T09:12:44;4.53;;;4.00;;
8228;SDS011;4155;50.118;8.714;2022-08-19T09:15:22;4.00;;;3.47;;
8228;SDS011;4155;50.118;8.714;2022-08-19T09:18:02;4.10;;;3.70;;
8228;SDS011;4155;50.118;8.714;2022-08-19T09:20:32;3.90;;;3.60;;
8228;SDS011;4155;50.118;8.714;2022-08-19T09:23:00;5.50;;;3.63;;
8228;SDS011;4155;50.118;8.714;2022-08-19T09:25:29;4.53;;;3.17;;
8228;SDS011;4155;50.118;8.714;2022-08-19T09:28:00;4.00;;;3.60;;
8228;SDS011;4155;50.118;8.714;2022-08-19T09:30:39;7.50;;;4.17;;
8228;SDS011;4155;50.118;8.714;2022-08-19T09:33:08;4.70;;;3.80;;
8228;SDS011;4155;50.118;8.714;2022-08-19T09:35:36;5.27;;;3.80;;
8228;SDS011;4155;50.118;8.714;2022-08-19T09:38:18;7.43;;;4.57;;
8228;SDS011;4155;50.118;8.714;2022-08-19T09:40:48;5.10;;;4.30;;
8228;SDS011;4155;50.118;8.714;2022-08-19T09:43:16;5.90;;;4.10;;
8228;SDS011;4155;50.118;8.714;2022-08-19T09:46:00;6.20;;;5.13;;
8228;SDS011;4155;50.118;8.714;2022-08-19T09:48:28;5.97;;;4.83;;
8228;SDS011;4155;50.118;8.714;2022-08-19T09:51:01;6.40;;;4.60;;
8228;SDS011;4155;50.118;8.714;2022-08-19T09:53:31;8.50;;;5.03;;
8228;SDS011;4155;50.118;8.714;2022-08-19T09:56:00;5.73;;;4.80;;
8228;SDS011;4155;50.118;8.714;2022-08-19T09:58:29;7.80;;;5.07;;
8228;SDS011;4155;50.118;8.714;2022-08-19T10:00:58;5.87;;;5.17;;
8228;SDS011;4155;50.118;8.714;2022-08-19T10:03:28;5.50;;;5.00;;
8228;SDS011;4155;50.118;8.714;2022-08-19T10:05:58;7.37;;;5.60;;
8228;SDS011;4155;50.118;8.714;2022-08-19T10:08:28;5.87;;;4.53;;
8228;SDS011;4155;50.118;8.714;2022-08-19T10:11:00;7.73;;;6.10;;
8228;SDS011;4155;50.118;8.714;2022-08-19T10:13:49;5.70;;;5.20;;
8228;SDS011;4155;50.118;8.714;2022-08-19T10:16:18;6.60;;;5.60;;
8228;SDS011;4155;50.118;8.714;2022-08-19T10:18:55;12.90;;;5.20;;
8228;SDS011;4155;50.118;8.714;2022-08-19T10:21:25;10.40;;;5.30;;
8228;SDS011;4155;50.118;8.714;2022-08-19T10:23:58;6.03;;;5.43;;
8228;SDS011;4155;50.118;8.714;2022-08-19T10:26:32;6.80;;;5.13;;
8228;SDS011;4155;50.118;8.714;2022-08-19T10:29:03;6.40;;;5.40;;
8228;SDS011;4155;50.118;8.714;2022-08-19T10:31:34;6.53;;;5.80;;
8228;SDS011;4155;50.118;8.714;2022-08-19T10:34:23;10.23;;;5.67;;
8228;SDS011;4155;50.118;8.714;2022-08-19T10:36:53;6.13;;;5.60;;
8228;SDS011;4155;50.118;8.714;2022-08-19T10:39:27;8.43;;;5.37;;
8228;SDS011;4155;50.118;8.714;2022-08-19T10:42:09;6.80;;;4.90;;
8228;SDS011;4155;50.118;8.714;2022-08-19T10:44:39;6.40;;;5.10;;
8228;SDS011;4155;50.118;8.714;2022-08-19T10:47:07;6.80;;;5.40;;
8228;SDS011;4155;50.118;8.714;2022-08-19T10:49:49;6.63;;;5.30;;
8228;SDS011;4155;50.118;8.714;2022-08-19T10:52:37;7.17;;;6.40;;
8228;SDS011;4155;50.118;8.714;2022-08-19T10:55:15;9.13;;;6.20;;
8228;SDS011;4155;50.118;8.714;2022-08-19T10:58:03;6.93;;;6.20;;
8228;SDS011;4155;50.118;8.714;2022-08-19T11:00:31;7.70;;;6.70;;
8228;SDS011;4155;50.118;8.714;2022-08-19T11:02:59;11.23;;;7.17;;
8228;SDS011;4155;50.118;8.714;2022-08-19T11:05:27;7.33;;;6.63;;
8228;SDS011;4155;50.118;8.714;2022-08-19T11:08:04;7.93;;;6.70;;
8228;SDS011;4155;50.118;8.714;2022-08-19T11:10:49;8.97;;;8.07;;
8228;SDS011;4155;50.118;8.714;2022-08-19T11:13:21;7.73;;;6.93;;
8228;SDS011;4155;50.118;8.714;2022-08-19T11:15:55;8.80;;;7.93;;
8228;SDS011;4155;50.118;8.714;2022-08-19T11:18:29;12.13;;;7.00;;
8228;SDS011;4155;50.118;8.714;2022-08-19T11:21:04;11.70;;;6.50;;
8228;SDS011;4155;50.118;8.714;2022-08-19T11:23:33;7.10;;;6.40;;
8228;SDS011;4155;50.118;8.714;2022-08-19T11:26:01;7.13;;;6.33;;
8228;SDS011;4155;50.118;8.714;2022-08-19T11:28:30;8.13;;;7.37;;
8228;SDS011;4155;50.118;8.714;2022-08-19T11:30:57;12.40;;;7.27;;
8228;SDS011;4155;50.118;8.714;2022-08-19T11:33:25;13.17;;;8.17;;
8228;SDS011;4155;50.118;8.714;2022-08-19T11:35:53;11.67;;;8.90;;
8228;SDS011;4155;50.118;8.714;2022-08-19T11:38:21;10.83;;;8.03;;
8228;SDS011;4155;50.118;8.714;2022-08-19T11:40:53;8.53;;;7.73;;
8228;SDS011;4155;50.118;8.714;2022-08-19T11:43:22;15.30;;;7.67;;
8228;SDS011;4155;50.118;8.714;2022-08-19T11:45:51;9.30;;;8.40;;
8228;SDS011;4155;50.118;8.714;2022-08-19T11:48:19;9.13;;;8.33;;
8228;SDS011;4155;50.118;8.714;2022-08-19T11:50:48;9.97;;;8.97;;
8228;SDS011;4155;50.118;8.714;2022-08-19T11:53:16;8.27;;;7.40;;
8228;SDS011;4155;50.118;8.714;2022-08-19T11:55:45;9.40;;;7.87;;
8228;SDS011;4155;50.118;8.714;2022-08-19T11:58:14;8.90;;;7.00;;
8228;SDS011;4155;50.118;8.714;2022-08-19T12:00:44;9.90;;;8.07;;
8228;SDS011;4155;50.118;8.714;2022-08-19T12:03:14;8.03;;;7.23;;
8228;SDS011;4155;50.118;8.714;2022-08-19T12:05:41;10.37;;;7.83;;
8228;SDS011;4155;50.118;8.714;2022-08-19T12:08:09;14.80;;;8.10;;
8228;SDS011;4155;50.118;8.714;2022-08-19T12:10:38;9.20;;;8.33;;
8228;SDS011;4155;50.118;8.714;2022-08-19T12:13:08;9.80;;;8.90;;
8228;SDS011;4155;50.118;8.714;2022-08-19T12:15:36;9.50;;;7.60;;
8228;SDS011;4155;50.118;8.714;2022-08-19T12:18:06;7.63;;;6.93;;
8228;SDS011;4155;50.118;8.714;2022-08-19T12:20:37;8.67;;;7.77;;
8228;SDS011;4155;50.118;8.714;2022-08-19T12:23:07;11.70;;;7.80;;
8228;SDS011;4155;50.118;8.714;2022-08-19T12:25:36;8.83;;;7.87;;
8228;SDS011;4155;50.118;8.714;2022-08-19T12:28:04;8.10;;;7.17;;
8228;SDS011;4155;50.118;8.714;2022-08-19T12:30:32;11.83;;;8.47;;
8228;SDS011;4155;50.118;8.714;2022-08-19T12:32:59;8.83;;;7.93;;
8228;SDS011;4155;50.118;8.714;2022-08-19T12:35:27;9.80;;;8.80;;
8228;SDS011;4155;50.118;8.714;2022-08-19T12:37:58;10.17;;;9.07;;
8228;SDS011;4155;50.118;8.714;2022-08-19T12:40:26;8.60;;;7.80;;
8228;SDS011;4155;50.118;8.714;2022-08-19T12:42:54;10.33;;;8.43;;
8228;SDS011;4155;50.118;8.714;2022-08-19T12:45:21;8.20;;;7.50;;
8228;SDS011;4155;50.118;8.714;2022-08-19T12:47:49;8.93;;;7.43;;
8228;SDS011;4155;50.118;8.714;2022-08-19T12:50:20;8.30;;;7.50;;
8228;SDS011;4155;50.118;8.714;2022-08-19T12:52:48;9.20;;;8.30;;
8228;SDS011;4155;50.118;8.714;2022-08-19T12:55:17;8.77;;;7.97;;
8228;SDS011;4155;50.118;8.714;2022-08-19T12:57:45;8.10;;;7.37;;
8228;SDS011;4155;50.118;8.714;2022-08-19T13:00:16;8.40;;;7.60;;
8228;SDS011;4155;50.118;8.714;2022-08-19T13:02:47;8.03;;;7.20;;
8228;SDS011;4155;50.118;8.714;2022-08-19T13:05:18;9.33;;;7.57;;
8228;SDS011;4155;50.118;8.714;2022-08-19T13:07:49;8.63;;;7.20;;
8228;SDS011;4155;50.118;8.714;2022-08-19T13:10:21;13.13;;;8.90;;
8228;SDS011;4155;50.118;8.714;2022-08-19T13:12:51;8.53;;;7.77;;
8228;SDS011;4155;50.118;8.714;2022-08-19T13:15:19;10.07;;;8.20;;
8228;SDS011;4155;50.118;8.714;2022-08-19T13:17:50;7.50;;;6.83;;
8228;SDS011;4155;50.118;8.714;2022-08-19T13:20:20;7.50;;;6.80;;
8228;SDS011;4155;50.118;8.714;2022-08-19T13:22:48;7.43;;;6.73;;
8228;SDS011;4155;50.118;8.714;2022-08-19T13:25:17;7.43;;;6.73;;
8228;SDS011;4155;50.118;8.714;2022-08-19T13:27:47;7.17;;;6.17;;
8228;SDS011;4155;50.118;8.714;2022-08-19T13:30:17;8.20;;;5.40;;
8228;SDS011;4155;50.118;8.714;2022-08-19T13:33:04;5.93;;;5.43;;
8228;SDS011;4155;50.118;8.714;2022-08-19T13:35:42;6.70;;;6.00;;
8228;SDS011;4155;50.118;8.714;2022-08-19T13:38:12;10.00;;;6.00;;
8228;SDS011;4155;50.118;8.714;2022-08-19T13:40:40;7.03;;;5.50;;
8228;SDS011;4155;50.118;8.714;2022-08-19T13:43:10;5.43;;;4.93;;
8228;SDS011;4155;50.118;8.714;2022-08-19T13:45:48;7.43;;;5.50;;
8228;SDS011;4155;50.118;8.714;2022-08-19T13:48:20;7.93;;;5.20;;
8228;SDS011;4155;50.118;8.714;2022-08-19T13:50:48;5.50;;;5.00;;
8228;SDS011;4155;50.118;8.714;2022-08-19T13:53:16;5.87;;;4.93;;
8228;SDS011;4155;50.118;8.714;2022-08-19T13:55:44;10.23;;;5.17;;
8228;SDS011;4155;50.118;8.714;2022-08-19T13:58:14;5.57;;;5.07;;
8228;SDS011;4155;50.118;8.714;2022-08-19T14:00:43;6.63;;;4.73;;
8228;SDS011;4155;50.118;8.714;2022-08-19T14:03:13;5.00;;;4.60;;
8228;SDS011;4155;50.118;8.714;2022-08-19T14:05:41;5.67;;;5.10;;
8228;SDS011;4155;50.118;8.714;2022-08-19T14:08:09;5.83;;;5.23;;
8228;SDS011;4155;50.118;8.714;2022-08-19T14:10:38;5.63;;;5.13;;
8228;SDS011;4155;50.118;8.714;2022-08-19T14:13:08;5.20;;;4.80;;
8228;SDS011;4155;50.118;8.714;2022-08-19T14:15:37;5.10;;;4.60;;
8228;SDS011;4155;50.118;8.714;2022-08-19T14:18:05;5.50;;;4.60;;
8228;SDS011;4155;50.118;8.714;2022-08-19T14:20:33;5.57;;;4.43;;
8228;SDS011;4155;50.118;8.714;2022-08-19T14:23:01;5.57;;;5.07;;
8228;SDS011;4155;50.118;8.714;2022-08-19T14:25:31;5.10;;;4.70;;
8228;SDS011;4155;50.118;8.714;2022-08-19T14:28:01;5.50;;;4.07;;
8228;SDS011;4155;50.118;8.714;2022-08-19T14:30:29;6.10;;;4.00;;
8228;SDS011;4155;50.118;8.714;2022-08-19T14:33:01;6.13;;;4.00;;
8228;SDS011;4155;50.118;8.714;2022-08-19T14:35:30;4.33;;;3.90;;
8228;SDS011;4155;50.118;8.714;2022-08-19T14:38:00;4.57;;;4.17;;
8228;SDS011;4155;50.118;8.714;2022-08-19T14:40:29;4.60;;;4.20;;
8228;SDS011;4155;50.118;8.714;2022-08-19T14:42:58;4.87;;;4.47;;
8228;SDS011;4155;50.118;8.714;2022-08-19T14:45:32;4.30;;;4.00;;
8228;SDS011;4155;50.118;8.714;2022-08-19T14:48:03;4.33;;;3.97;;
8228;SDS011;4155;50.118;8.714;2022-08-19T14:50:31;4.57;;;4.17;;
8228;SDS011;4155;50.118;8.714;2022-08-19T14:53:00;4.40;;;4.00;;
8228;SDS011;4155;50.118;8.714;2022-08-19T14:55:40;5.97;;;3.70;;
8228;SDS011;4155;50.118;8.714;2022-08-19T14:58:08;4.93;;;3.80;;
8228;SDS011;4155;50.118;8.714;2022-08-19T15:00:56;7.80;;;4.00;;
8228;SDS011;4155;50.118;8.714;2022-08-19T15:03:27;4.30;;;3.90;;
8228;SDS011;4155;50.118;8.714;2022-08-19T15:05:56;4.10;;;3.60;;
8228;SDS011;4155;50.118;8.714;2022-08-19T15:08:24;4.63;;;4.23;;
8228;SDS011;4155;50.118;8.714;2022-08-19T15:10:53;4.40;;;4.00;;
8228;SDS011;4155;50.118;8.714;2022-08-19T15:13:21;4.50;;;4.10;;
8228;SDS011;4155;50.118;8.714;2022-08-19T15:15:49;5.67;;;4.23;;
8228;SDS011;4155;50.118;8.714;2022-08-19T15:18:17;4.80;;;3.90;;
8228;SDS011;4155;50.118;8.714;2022-08-19T15:20:47;4.70;;;3.90;;
8228;SDS011;4155;50.118;8.714;2022-08-19T15:23:17;4.23;;;3.93;;
8228;SDS011;4155;50.118;8.714;2022-08-19T15:25:46;3.93;;;3.63;;